createdAt,value
2018-02-20T00:01:18.414Z,97571.56
2018-02-20T00:03:45.989Z,97574.89
2018-02-20T00:06:13.575Z,97571.34
2018-02-20T00:08:41.071Z,97570.38
2018-02-20T00:11:08.610Z,97565.72
2018-02-20T00:13:36.112Z,97565.31
2018-02-20T00:16:03.715Z,97564.55
2018-02-20T00:18:31.227Z,97565.67
2018-02-20T00:20:58.726Z,97564.95
2018-02-20T00:23:26.249Z,97564.19
2018-02-20T00:25:53.767Z,97565.80
2018-02-20T00:28:21.280Z,97566.77
2018-02-20T00:30:48.877Z,97561.69
2018-02-20T00:33:16.366Z,97562.66
2018-02-20T00:35:43.891Z,97551.92
2018-02-20T00:38:11.408Z,97547.66
2018-02-20T00:40:39.082Z,97557.62
2018-02-20T00:43:06.555Z,97553.00
2018-02-20T00:45:34.104Z,97557.42
2018-02-20T00:48:01.601Z,97557.78
2018-02-20T00:50:29.168Z,97558.52
2018-02-20T00:52:56.792Z,97551.88
2018-02-20T00:55:24.388Z,97545.06
2018-02-20T00:57:51.970Z,97552.11
2018-02-20T01:00:19.614Z,97546.75
2018-02-20T01:02:47.163Z,97552.41
2018-02-20T01:05:14.685Z,97546.19
2018-02-20T01:07:42.217Z,97547.60
2018-02-20T01:10:09.736Z,97542.25
2018-02-20T01:12:37.265Z,97535.69
2018-02-20T01:15:04.741Z,97543.45
2018-02-20T01:17:32.253Z,97528.89
2018-02-20T01:19:59.747Z,97538.78
2018-02-20T01:22:27.241Z,97540.22
2018-02-20T01:24:54.778Z,97543.31
2018-02-20T01:27:22.286Z,97541.33
2018-02-20T01:29:49.777Z,97540.22
2018-02-20T01:32:17.377Z,97535.72
2018-02-20T01:34:44.875Z,97533.10
2018-02-20T01:37:12.379Z,97543.08
2018-02-20T01:39:39.874Z,97541.55
2018-02-20T01:42:07.517Z,97531.86
2018-02-20T01:44:35.117Z,97531.90
2018-02-20T01:47:02.646Z,97539.72
2018-02-20T01:49:30.321Z,97532.19
2018-02-20T01:51:57.922Z,97525.31
2018-02-20T01:54:25.574Z,97538.59
2018-02-20T01:56:53.182Z,97531.30
2018-02-20T01:59:20.744Z,97536.81
2018-02-20T02:01:48.257Z,97531.11
2018-02-20T02:04:15.786Z,97529.41
2018-02-20T02:06:43.316Z,97525.91
2018-02-20T02:09:11.574Z,97528.08
2018-02-20T02:11:39.049Z,97534.67
2018-02-20T02:14:06.571Z,97529.97
2018-02-20T02:16:34.071Z,97523.77
2018-02-20T02:19:01.578Z,97527.15
2018-02-20T02:21:29.062Z,97514.84
2018-02-20T02:23:56.616Z,97526.95
2018-02-20T02:26:24.214Z,97517.02
2018-02-20T02:28:51.758Z,97522.88
2018-02-20T02:31:19.264Z,97527.83
2018-02-20T02:33:46.928Z,97522.33
2018-02-20T02:36:14.473Z,97521.28
2018-02-20T02:38:42.383Z,97525.74
2018-02-20T02:41:10.713Z,97526.75
2018-02-20T02:43:38.250Z,97527.91
2018-02-20T02:46:05.965Z,97528.88
2018-02-20T02:48:33.598Z,97524.59
2018-02-20T02:51:01.143Z,97525.84
2018-02-20T02:53:28.728Z,97531.99
2018-02-20T02:55:56.305Z,97527.16
2018-02-20T02:58:23.823Z,97531.42
2018-02-20T03:00:51.319Z,97522.50
2018-02-20T03:03:18.866Z,97522.70
2018-02-20T03:05:46.542Z,97528.02
2018-02-20T03:08:14.090Z,97534.65
2018-02-20T03:10:41.596Z,97531.03
2018-02-20T03:13:09.103Z,97534.17
2018-02-20T03:15:36.616Z,97526.84
2018-02-20T03:18:04.105Z,97539.87
2018-02-20T03:20:31.628Z,97528.97
2018-02-20T03:22:59.838Z,97529.50
2018-02-20T03:25:27.354Z,97528.45
2018-02-20T03:27:54.930Z,97523.66
2018-02-20T03:30:22.530Z,97531.34
2018-02-20T03:32:50.059Z,97532.16
2018-02-20T03:35:17.648Z,97526.41
2018-02-20T03:37:45.249Z,97526.28
2018-02-20T03:40:12.738Z,97528.89
2018-02-20T03:42:40.241Z,97530.38
2018-02-20T03:45:07.823Z,97529.63
2018-02-20T03:47:35.342Z,97529.54
2018-02-20T03:50:02.833Z,97536.94
2018-02-20T03:52:30.347Z,97530.86
2018-02-20T03:54:57.827Z,97531.87
2018-02-20T03:57:25.348Z,97533.77
2018-02-20T03:59:52.836Z,97531.19
2018-02-20T04:02:20.391Z,97536.17
2018-02-20T04:04:47.976Z,97544.50
2018-02-20T04:07:15.633Z,97530.50
2018-02-20T04:09:43.188Z,97533.56
2018-02-20T04:12:10.715Z,97529.62
2018-02-20T04:14:38.263Z,97529.98
2018-02-20T04:17:05.818Z,97543.24
2018-02-20T04:19:33.308Z,97542.80
2018-02-20T04:22:00.913Z,97533.22
2018-02-20T04:24:28.462Z,97540.74
2018-02-20T04:26:56.103Z,97533.10
2018-02-20T04:29:23.743Z,97544.63
2018-02-20T04:31:51.303Z,97524.66
2018-02-20T04:34:18.816Z,97530.18
2018-02-20T04:36:46.349Z,97526.23
2018-02-20T04:39:14.457Z,97525.35
2018-02-20T04:41:41.977Z,97519.31
2018-02-20T04:44:09.515Z,97517.78
2018-02-20T04:46:37.000Z,97514.97
2018-02-20T04:49:04.512Z,97516.78
2018-02-20T04:51:32.007Z,97525.02
2018-02-20T04:53:59.646Z,97519.70
2018-02-20T04:56:27.309Z,97520.80
2018-02-20T04:58:54.846Z,97519.41
2018-02-20T05:01:22.401Z,97518.02
2018-02-20T05:03:49.943Z,97514.74
2018-02-20T05:06:17.532Z,97515.91
2018-02-20T05:08:45.174Z,97519.05
2018-02-20T05:11:12.719Z,97521.79
2018-02-20T05:13:40.215Z,97524.23
2018-02-20T05:16:07.732Z,97526.05
2018-02-20T05:18:35.238Z,97525.12
2018-02-20T05:21:02.750Z,97525.52
2018-02-20T05:23:30.249Z,97527.34
2018-02-20T05:25:57.774Z,97525.67
2018-02-20T05:28:25.286Z,97528.09
2018-02-20T05:30:52.768Z,97530.06
2018-02-20T05:33:20.339Z,97529.73
2018-02-20T05:35:47.837Z,97532.97
2018-02-20T05:38:15.370Z,97530.95
2018-02-20T05:40:42.864Z,97540.30
2018-02-20T05:43:10.482Z,97545.22
2018-02-20T05:45:37.975Z,97543.31
2018-02-20T05:48:05.500Z,97545.44
2018-02-20T05:50:33.005Z,97549.02
2018-02-20T05:53:00.492Z,97547.24
2018-02-20T05:55:28.022Z,97544.38
2018-02-20T05:57:56.193Z,97549.00
2018-02-20T06:00:23.668Z,97546.87
2018-02-20T06:02:51.210Z,97544.66
2018-02-20T06:05:18.767Z,97554.35
2018-02-20T06:07:46.254Z,97551.56
2018-02-20T06:10:13.842Z,97556.58
2018-02-20T06:12:41.501Z,97559.47
2018-02-20T06:15:09.016Z,97558.05
2018-02-20T06:17:36.512Z,97563.44
2018-02-20T06:20:04.034Z,97566.28
2018-02-20T06:22:31.570Z,97566.53
2018-02-20T06:24:59.056Z,97560.80
2018-02-20T06:27:27.256Z,97562.63
2018-02-20T06:29:54.748Z,97562.75
2018-02-20T06:32:22.391Z,97562.75
2018-02-20T06:34:49.930Z,97565.41
2018-02-20T06:37:17.773Z,97561.59
2018-02-20T06:39:45.274Z,97565.49
2018-02-20T06:42:12.817Z,97566.05
2018-02-20T06:44:40.310Z,97560.87
2018-02-20T06:47:07.933Z,97567.03
2018-02-20T06:49:35.456Z,97567.95
2018-02-20T06:52:02.967Z,97570.30
2018-02-20T06:54:30.476Z,97565.56
2018-02-20T06:56:58.326Z,97572.72
2018-02-20T06:59:26.711Z,97576.36
2018-02-20T07:01:54.292Z,97574.34
2018-02-20T07:04:21.830Z,97574.62
2018-02-20T07:06:49.429Z,97573.09
2018-02-20T07:09:16.903Z,97575.86
2018-02-20T07:11:44.417Z,97575.98
2018-02-20T07:14:11.957Z,97578.55
2018-02-20T07:16:39.461Z,97585.43
2018-02-20T07:19:07.001Z,97588.70
2018-02-20T07:21:34.509Z,97582.43
2018-02-20T07:24:02.006Z,97583.47
2018-02-20T07:26:29.537Z,97581.77
2018-02-20T07:28:57.062Z,97584.41
2018-02-20T07:31:24.548Z,97577.84
2018-02-20T07:33:52.070Z,97580.21
2018-02-20T07:36:19.575Z,97580.45
2018-02-20T07:38:47.101Z,97574.75
2018-02-20T07:41:14.584Z,97572.25
2018-02-20T07:43:42.087Z,97574.52
2018-02-20T07:46:09.604Z,97572.95
2018-02-20T07:48:37.124Z,97576.74
2018-02-20T07:51:05.382Z,97576.73
2018-02-20T07:53:32.877Z,97578.63
2018-02-20T07:56:00.875Z,97580.64
2018-02-20T07:58:28.388Z,97576.02
2018-02-20T08:00:55.889Z,97581.68
2018-02-20T08:03:23.412Z,97584.09
2018-02-20T08:05:50.989Z,97591.10
2018-02-20T08:08:18.499Z,97590.88
2018-02-20T08:10:45.999Z,97589.64
2018-02-20T08:13:13.512Z,97582.90
2018-02-20T08:15:41.010Z,97583.27
2018-02-20T08:18:08.515Z,97580.97
2018-02-20T08:20:36.004Z,97589.84
2018-02-20T08:23:03.712Z,97588.16
2018-02-20T08:25:31.375Z,97581.19
2018-02-20T08:27:58.957Z,97580.38
2018-02-20T08:30:26.548Z,97587.88
2018-02-20T08:32:54.145Z,97585.94
2018-02-20T08:35:21.822Z,97589.12
2018-02-20T08:37:49.316Z,97579.13
2018-02-20T08:40:16.824Z,97593.59
2018-02-20T08:42:44.321Z,97593.63
2018-02-20T08:45:11.874Z,97584.72
2018-02-20T08:47:39.378Z,97581.55
2018-02-20T08:50:06.931Z,97581.21
2018-02-20T08:52:34.525Z,97578.26
2018-02-20T08:55:02.061Z,97589.14
2018-02-20T08:57:29.571Z,97584.98
2018-02-20T08:59:57.061Z,97586.52
2018-02-20T09:02:24.580Z,97590.78
2018-02-20T09:04:52.094Z,97582.24
2018-02-20T09:07:19.620Z,97581.04
2018-02-20T09:09:47.121Z,97589.91
2018-02-20T09:12:14.649Z,97583.78
2018-02-20T09:14:42.133Z,97583.63
2018-02-20T09:17:09.810Z,97578.33
2018-02-20T09:19:37.727Z,97576.82
2018-02-20T09:22:05.231Z,97574.81
2018-02-20T09:24:32.760Z,97571.13
2018-02-20T09:27:00.261Z,97564.72
2018-02-20T09:29:27.769Z,97568.00
2018-02-20T09:31:55.277Z,97571.23
2018-02-20T09:34:22.968Z,97568.16
2018-02-20T09:36:50.465Z,97563.44
2018-02-20T09:39:17.955Z,97560.28
2018-02-20T09:41:45.474Z,97555.21
2018-02-20T09:44:13.013Z,97560.66
2018-02-20T09:46:41.225Z,97560.28
2018-02-20T09:49:08.773Z,97560.72
2018-02-20T09:51:36.477Z,97559.98
2018-02-20T09:54:03.957Z,97559.11
2018-02-20T09:56:31.490Z,97560.72
2018-02-20T09:58:58.983Z,97562.55
2018-02-20T10:01:26.510Z,97558.30
2018-02-20T10:03:54.010Z,97554.56
2018-02-20T10:06:21.691Z,97557.28
2018-02-20T10:08:49.227Z,97560.30
2018-02-20T10:11:16.952Z,97561.81
2018-02-20T10:13:44.472Z,97564.88
2018-02-20T10:16:11.975Z,97561.71
2018-02-20T10:18:39.628Z,97562.84
2018-02-20T10:21:07.472Z,97556.77
2018-02-20T10:23:35.038Z,97558.85
2018-02-20T10:26:02.587Z,97562.48
2018-02-20T10:28:30.067Z,97550.48
2018-02-20T10:30:57.610Z,97563.31
2018-02-20T10:33:25.089Z,97561.95
2018-02-20T10:35:52.679Z,97551.30
2018-02-20T10:38:20.170Z,97554.39
2018-02-20T10:40:47.906Z,97552.70
2018-02-20T10:43:15.699Z,97553.59
2018-02-20T10:45:43.195Z,97552.57
2018-02-20T10:48:10.737Z,97543.09
2018-02-20T10:50:38.252Z,97548.96
2018-02-20T10:53:05.747Z,97545.09
2018-02-20T10:55:33.604Z,97545.34
2018-02-20T10:58:01.102Z,97536.22
2018-02-20T11:00:28.706Z,97540.75
2018-02-20T11:02:56.954Z,97534.41
2018-02-20T11:05:24.476Z,97535.55
2018-02-20T11:07:51.976Z,97543.97
2018-02-20T11:10:19.608Z,97543.25
2018-02-20T11:12:47.112Z,97544.48
2018-02-20T11:15:14.638Z,97547.98
2018-02-20T11:17:42.168Z,97539.91
2018-02-20T11:20:09.760Z,97542.67
2018-02-20T11:22:37.245Z,97538.59
2018-02-20T11:25:04.744Z,97541.15
2018-02-20T11:27:32.252Z,97545.81
2018-02-20T11:29:59.741Z,97539.50
2018-02-20T11:32:27.275Z,97548.08
2018-02-20T11:34:54.774Z,97547.97
2018-02-20T11:37:22.359Z,97548.73
2018-02-20T11:39:49.872Z,97542.56
2018-02-20T11:42:17.360Z,97545.27
2018-02-20T11:44:45.633Z,97542.20
2018-02-20T11:47:13.134Z,97546.48
2018-02-20T11:49:40.648Z,97554.24
2018-02-20T11:52:08.130Z,97549.25
2018-02-20T11:54:35.643Z,97547.60
2018-02-20T11:57:03.132Z,97547.84
2018-02-20T11:59:30.654Z,97543.67
2018-02-20T12:01:58.379Z,97547.05
2018-02-20T12:04:25.930Z,97549.74
2018-02-20T12:06:53.520Z,97549.69
2018-02-20T12:09:21.051Z,97548.73
2018-02-20T12:11:48.556Z,97547.41
2018-02-20T12:14:16.069Z,97549.76
2018-02-20T12:16:43.605Z,97543.20
2018-02-20T12:19:11.098Z,97536.30
2018-02-20T12:21:38.614Z,97536.23
2018-02-20T12:24:06.113Z,97540.64
2018-02-20T12:26:33.625Z,97542.70
2018-02-20T12:29:01.119Z,97543.16
2018-02-20T12:31:28.661Z,97543.34
2018-02-20T12:33:56.163Z,97546.77
2018-02-20T12:36:24.051Z,97550.48
2018-02-20T12:38:51.575Z,97549.64
2018-02-20T12:41:19.084Z,97550.50
2018-02-20T12:43:46.650Z,97545.86
2018-02-20T12:46:14.131Z,97547.52
2018-02-20T12:48:41.667Z,97548.20
2018-02-20T12:51:09.180Z,97557.13
2018-02-20T12:53:36.861Z,97549.58
2018-02-20T12:56:04.343Z,97553.66
2018-02-20T12:58:31.940Z,97546.97
2018-02-20T13:00:59.498Z,97551.35
2018-02-20T13:03:27.082Z,97546.98
2018-02-20T13:05:54.594Z,97551.84
2018-02-20T13:08:22.119Z,97553.70
2018-02-20T13:10:49.617Z,97548.61
2018-02-20T13:13:17.758Z,97548.60
2018-02-20T13:15:45.327Z,97550.19
2018-02-20T13:18:12.856Z,97548.80
2018-02-20T13:20:40.910Z,97552.53
2018-02-20T13:23:08.447Z,97552.13
2018-02-20T13:25:35.946Z,97553.27
2018-02-20T13:28:03.481Z,97557.72
2018-02-20T13:30:30.970Z,97552.83
2018-02-20T13:32:58.478Z,97551.33
2018-02-20T13:35:25.983Z,97552.14
2018-02-20T13:37:53.492Z,97558.39
2018-02-20T13:40:21.012Z,97551.67
2018-02-20T13:42:48.536Z,97542.74
2018-02-20T13:45:16.080Z,97549.05
2018-02-20T13:47:43.598Z,97546.21
2018-02-20T13:50:11.144Z,97541.50
2018-02-20T13:52:38.646Z,97539.78
2018-02-20T13:55:06.147Z,97541.59
2018-02-20T13:57:35.093Z,97550.00
2018-02-20T14:00:02.607Z,97545.03
2018-02-20T14:02:30.252Z,97549.55
2018-02-20T14:04:57.753Z,97547.09
2018-02-20T14:07:25.272Z,97555.27
2018-02-20T14:09:52.777Z,97549.61
2018-02-20T14:12:20.293Z,97549.55
2018-02-20T14:14:47.837Z,97547.88
2018-02-20T14:17:15.427Z,97550.54
2018-02-20T14:19:43.100Z,97549.77
2018-02-20T14:22:10.650Z,97547.14
2018-02-20T14:24:38.131Z,97548.55
2018-02-20T14:27:05.613Z,97547.54
2018-02-20T14:29:33.756Z,97547.98
2018-02-20T14:32:01.306Z,97547.27
2018-02-20T14:34:28.892Z,97539.87
2018-02-20T14:36:56.600Z,97548.59
2018-02-20T14:39:24.093Z,97548.06
2018-02-20T14:41:51.634Z,97551.22
2018-02-20T14:44:19.500Z,97548.06
2018-02-20T14:46:47.057Z,97552.05
2018-02-20T14:49:14.583Z,97552.24
2018-02-20T14:51:42.092Z,97549.52
2018-02-20T14:54:09.636Z,97549.59
2018-02-20T14:56:37.165Z,97549.64
2018-02-20T14:59:04.705Z,97552.05
2018-02-20T15:01:32.199Z,97550.06
2018-02-20T15:03:59.800Z,97548.10
2018-02-20T15:06:27.418Z,97550.34
2018-02-20T15:08:55.047Z,97548.90
2018-02-20T15:11:22.637Z,97556.33
2018-02-20T15:13:50.196Z,97554.50
2018-02-20T15:16:17.882Z,97552.73
2018-02-20T15:18:45.410Z,97550.94
2018-02-20T15:21:13.020Z,97548.98
2018-02-20T15:23:40.537Z,97554.19
2018-02-20T15:26:08.059Z,97555.04
2018-02-20T15:28:35.576Z,97559.93
2018-02-20T15:31:03.068Z,97564.11
2018-02-20T15:33:30.597Z,97571.03
2018-02-20T15:35:58.070Z,97566.59
2018-02-20T15:38:25.592Z,97572.45
2018-02-20T15:40:53.072Z,97578.17
2018-02-20T15:43:20.688Z,97579.94
2018-02-20T15:45:48.188Z,97578.61
2018-02-20T15:48:15.738Z,97579.33
2018-02-20T15:50:43.270Z,97578.01
2018-02-20T15:53:10.819Z,97584.52
2018-02-20T15:55:38.348Z,97580.13
2018-02-20T15:58:05.853Z,97586.67
2018-02-20T16:00:33.450Z,97584.84
2018-02-20T16:03:01.039Z,97588.95
2018-02-20T16:05:28.644Z,97589.52
2018-02-20T16:07:56.180Z,97594.42
2018-02-20T16:10:23.942Z,97593.98
2018-02-20T16:12:51.928Z,97594.54
2018-02-20T16:15:19.449Z,97599.17
2018-02-20T16:17:46.978Z,97593.30
2018-02-20T16:20:14.502Z,97598.45
2018-02-20T16:22:42.022Z,97601.55
2018-02-20T16:25:10.422Z,97600.38
2018-02-20T16:27:38.075Z,97592.66
2018-02-20T16:30:05.643Z,97600.22
2018-02-20T16:32:33.192Z,97604.05
2018-02-20T16:35:00.891Z,97608.20
2018-02-20T16:37:28.482Z,97603.09
2018-02-20T16:39:56.924Z,97606.88
2018-02-20T16:42:24.572Z,97598.02
2018-02-20T16:44:52.242Z,97601.24
2018-02-20T16:47:19.742Z,97598.02
2018-02-20T16:49:47.257Z,97602.94
2018-02-20T16:52:14.844Z,97600.80
2018-02-20T16:54:42.402Z,97598.99
2018-02-20T16:57:09.995Z,97602.77
2018-02-20T16:59:37.614Z,97606.47
2018-02-20T17:02:05.131Z,97606.16
2018-02-20T17:04:32.710Z,97603.89
2018-02-20T17:07:00.227Z,97610.82
2018-02-20T17:09:27.759Z,97614.52
2018-02-20T17:11:55.333Z,97614.63
2018-02-20T17:14:22.872Z,97620.69
2018-02-20T17:16:50.408Z,97616.27
2018-02-20T17:19:17.942Z,97611.88
2018-02-20T17:21:45.468Z,97616.17
2018-02-20T17:24:12.981Z,97620.97
2018-02-20T17:26:40.498Z,97623.55
2018-02-20T17:29:08.070Z,97623.00
2018-02-20T17:31:35.579Z,97620.30
2018-02-20T17:34:03.060Z,97630.66
2018-02-20T17:36:30.605Z,97637.83
2018-02-20T17:38:58.208Z,97630.56
2018-02-20T17:41:25.824Z,97622.83
2018-02-20T17:43:53.323Z,97617.75
2018-02-20T17:46:20.865Z,97633.42
2018-02-20T17:48:48.369Z,97626.78
2018-02-20T17:51:16.058Z,97636.22
2018-02-20T17:53:44.111Z,97637.16
2018-02-20T17:56:11.740Z,97631.25
2018-02-20T17:58:40.017Z,97637.50
2018-02-20T18:01:07.554Z,97636.13
2018-02-20T18:03:35.108Z,97645.77
2018-02-20T18:06:02.946Z,97646.33
2018-02-20T18:08:30.500Z,97650.64
2018-02-20T18:10:58.007Z,97650.40
2018-02-20T18:13:25.557Z,97653.18
2018-02-20T18:15:53.102Z,97658.88
2018-02-20T18:18:21.354Z,97655.39
2018-02-20T18:20:48.971Z,97663.44
2018-02-20T18:23:16.583Z,97669.37
2018-02-20T18:25:44.203Z,97667.11
2018-02-20T18:28:11.756Z,97668.80
2018-02-20T18:30:39.401Z,97671.84
2018-02-20T18:33:06.894Z,97673.09
2018-02-20T18:35:34.430Z,97676.80
2018-02-20T18:38:01.934Z,97671.69
2018-02-20T18:40:29.467Z,97669.34
2018-02-20T18:42:56.986Z,97676.95
2018-02-20T18:45:24.700Z,97679.72
2018-02-20T18:47:52.280Z,97677.20
2018-02-20T18:50:19.852Z,97680.13
2018-02-20T18:52:47.393Z,97684.28
2018-02-20T18:55:14.986Z,97690.08
2018-02-20T18:57:42.546Z,97690.92
2018-02-20T19:00:10.113Z,97690.89
2018-02-20T19:02:38.442Z,97698.38
2018-02-20T19:05:05.943Z,97697.84
2018-02-20T19:07:33.472Z,97695.76
2018-02-20T19:10:00.984Z,97695.41
2018-02-20T19:12:28.547Z,97692.76
2018-02-20T19:14:56.991Z,97690.02
2018-02-20T19:17:24.558Z,97692.67
2018-02-20T19:19:52.152Z,97697.47
2018-02-20T19:22:19.693Z,97704.98
2018-02-20T19:24:47.475Z,97711.95
2018-02-20T19:27:15.028Z,97713.92
2018-02-20T19:29:42.635Z,97712.50
2018-02-20T19:32:10.142Z,97708.99
2018-02-20T19:34:37.662Z,97710.56
2018-02-20T19:37:05.183Z,97713.78
2018-02-20T19:39:32.722Z,97718.32
2018-02-20T19:42:00.263Z,97716.68
2018-02-20T19:44:27.835Z,97731.30
2018-02-20T19:46:55.367Z,97725.50
2018-02-20T19:49:22.882Z,97726.86
2018-02-20T19:51:50.491Z,97721.47
2018-02-20T19:54:18.008Z,97729.22
2018-02-20T19:56:46.230Z,97727.59
2018-02-20T19:59:13.807Z,97725.98
2018-02-20T20:01:41.730Z,97732.30
2018-02-20T20:04:09.302Z,97729.55
2018-02-20T20:06:36.851Z,97737.40
2018-02-20T20:09:04.349Z,97732.95
2018-02-20T20:11:31.924Z,97728.38
2018-02-20T20:13:59.452Z,97732.44
2018-02-20T20:16:27.895Z,97735.80
2018-02-20T20:18:55.454Z,97746.50
2018-02-20T20:21:23.328Z,97743.18
2018-02-20T20:23:50.834Z,97740.66
2018-02-20T20:26:18.365Z,97743.27
2018-02-20T20:28:46.055Z,97750.51
2018-02-20T20:31:13.594Z,97744.39
2018-02-20T20:33:41.136Z,97749.70
2018-02-20T20:36:08.674Z,97748.26
2018-02-20T20:38:36.223Z,97741.78
2018-02-20T20:41:03.762Z,97747.38
2018-02-20T20:43:31.368Z,97744.17
2018-02-20T20:45:58.883Z,97756.77
2018-02-20T20:48:26.429Z,97752.45
2018-02-20T20:50:54.065Z,97748.12
2018-02-20T20:53:21.602Z,97752.86
2018-02-20T20:55:49.198Z,97751.14
2018-02-20T20:58:16.807Z,97754.88
2018-02-20T21:00:44.396Z,97752.75
2018-02-20T21:03:11.918Z,97752.92
2018-02-20T21:05:39.487Z,97756.86
2018-02-20T21:08:07.044Z,97758.01
2018-02-20T21:10:34.569Z,97757.48
2018-02-20T21:13:02.074Z,97763.02
2018-02-20T21:15:29.686Z,97760.19
2018-02-20T21:17:57.197Z,97762.61
2018-02-20T21:20:24.721Z,97760.25
2018-02-20T21:22:52.229Z,97763.30
2018-02-20T21:25:19.720Z,97759.04
2018-02-20T21:27:47.245Z,97755.30
2018-02-20T21:30:14.789Z,97758.34
2018-02-20T21:32:42.411Z,97756.66
2018-02-20T21:35:09.940Z,97752.51
2018-02-20T21:37:37.506Z,97753.96
2018-02-20T21:40:05.022Z,97750.44
2018-02-20T21:42:32.550Z,97743.56
2018-02-20T21:45:00.069Z,97743.63
2018-02-20T21:47:27.657Z,97748.13
2018-02-20T21:49:55.203Z,97747.17
2018-02-20T21:52:22.791Z,97744.37
2018-02-20T21:54:50.428Z,97746.28
2018-02-20T21:57:17.967Z,97738.73
2018-02-20T21:59:45.576Z,97739.59
2018-02-20T22:02:13.068Z,97742.19
2018-02-20T22:04:40.602Z,97736.38
2018-02-20T22:07:08.120Z,97747.09
2018-02-20T22:09:35.664Z,97745.84
2018-02-20T22:12:03.247Z,97739.66
2018-02-20T22:14:31.377Z,97746.98
2018-02-20T22:16:58.868Z,97738.79
2018-02-20T22:19:26.376Z,97742.08
2018-02-20T22:21:53.885Z,97739.88
2018-02-20T22:24:21.412Z,97737.16
2018-02-20T22:26:49.003Z,97741.22
2018-02-20T22:29:16.573Z,97748.77
2018-02-20T22:31:44.170Z,97750.91
2018-02-20T22:34:11.679Z,97747.33
2018-02-20T22:36:39.328Z,97755.28
2018-02-20T22:39:06.945Z,97751.30
2018-02-20T22:41:34.520Z,97753.15
2018-02-20T22:44:02.037Z,97753.41
2018-02-20T22:46:29.527Z,97757.36
2018-02-20T22:48:57.050Z,97760.25
2018-02-20T22:51:24.687Z,97759.55
2018-02-20T22:53:52.197Z,97761.63
2018-02-20T22:56:19.702Z,97765.26
2018-02-20T22:58:47.225Z,97765.34
2018-02-20T23:01:14.719Z,97768.98
2018-02-20T23:03:42.224Z,97781.11
2018-02-20T23:06:09.726Z,97782.63
2018-02-20T23:08:37.225Z,97782.41
2018-02-20T23:11:05.584Z,97776.73
2018-02-20T23:13:33.179Z,97773.05
2018-02-20T23:16:00.806Z,97776.69
2018-02-20T23:18:28.306Z,97786.12
2018-02-20T23:20:55.807Z,97782.97
2018-02-20T23:23:24.652Z,97790.85
2018-02-20T23:25:52.151Z,97791.50
2018-02-20T23:28:19.672Z,97787.41
2018-02-20T23:30:47.210Z,97790.36
2018-02-20T23:33:14.738Z,97797.50
2018-02-20T23:35:42.252Z,97800.24
2018-02-20T23:38:09.761Z,97797.09
2018-02-20T23:40:37.271Z,97794.28
2018-02-20T23:43:04.786Z,97796.71
2018-02-20T23:45:32.279Z,97797.48
2018-02-20T23:47:59.796Z,97801.59
2018-02-20T23:50:27.276Z,97804.80
2018-02-20T23:52:54.802Z,97803.92
2018-02-20T23:55:22.316Z,97802.56
2018-02-20T23:57:49.846Z,97799.36
